Linzy — SIRU — position and weather

sailwx.info

Track history (hours):
 
Tides and Currents Weather Stations Pressure Air Temp Water Temp Dewpoint Dewpoint Depression Visibility Wind Speed Wind Dir Waves Ship Positions

Linzy

Last reported at 2017-May-22 18:12 UTC. Time now 2017-May-22 19:17 UTC.
Position N 55°33' E 014°22'.

Length 15 m.

Type: Fishing. MMSI: 265507290.

Date/timePositionNaut miles runAvg speedWind from/ knotsBaromVisibWave heightAir tempDewpointWater temp
2017-May-22 18:12N 55°33' E 014°22'0 0.0
2017-May-22 17:52N 55°33' E 014°22'3 6.6
2017-May-22 17:29N 55°33' E 014°26'5 8.2
2017-May-22 16:56N 55°30' E 014°32'1 2.2
2017-May-22 16:26N 55°29' E 014°33'0 0.7
2017-May-22 15:48N 55°29' E 014°33'1 1.5
2017-May-22 15:12N 55°28' E 014°32'1 1.8
2017-May-22 14:49N 55°27' E 014°34'2 2.3
2017-May-22 13:57N 55°29' E 014°36'2 2.7
2017-May-22 13:20N 55°30' E 014°38'1 2.9
2017-May-22 13:00N 55°30' E 014°40'2 3.0
2017-May-22 12:28N 55°31' E 014°43'2 3.0
2017-May-22 11:56N 55°31' E 014°45'1 1.1
2017-May-22 10:58N 55°30' E 014°47'1 1.1
2017-May-22 10:30N 55°30' E 014°46'1 2.6
2017-May-22 09:57N 55°31' E 014°44'3 2.8
2017-May-22 08:44N 55°33' E 014°40'1 2.8
2017-May-22 08:23N 55°34' E 014°40'2 1.5
2017-May-22 07:07N 55°33' E 014°38'1 2.8
2017-May-22 06:40N 55°32' E 014°40'2 1.8
2017-May-22 05:26N 55°30' E 014°38'2 2.9
2017-May-22 04:42N 55°29' E 014°35'2 2.9
2017-May-22 04:11N 55°28' E 014°33'1 3.0
2017-May-22 03:57N 55°27' E 014°33'1 3.1
2017-May-22 03:29N 55°26' E 014°31'1 2.1
2017-May-22 03:00N 55°25' E 014°30'5 7.6
2017-May-22 02:24N 55°29' E 014°26'5 2.7
2017-May-22 00:42N 55°33' E 014°22'0 0.0
2017-May-21 23:12N 55°33' E 014°22'0 0.0
2017-May-21 23:00N 55°33' E 014°21'0 0.0
2017-May-21 22:30N 55°33' E 014°22'0 0.0
2017-May-21 21:00N 55°33' E 014°22'0 0.0
2017-May-21 16:30N 55°33' E 014°22'0 0.0
2017-May-21 14:42N 55°33' E 014°22'0 0.0
2017-May-21 14:00N 55°33' E 014°22'0 0.0
2017-May-21 13:30N 55°33' E 014°22'0 0.0
2017-May-21 09:48N 55°33' E 014°22'0 0.1
2017-May-21 07:39N 55°34' E 014°21'1 7.8
2017-May-21 07:29N 55°34' E 014°24'2 2.6
2017-May-21 06:47N 55°34' E 014°27'0 1.5
2017-May-21 06:30N 55°34' E 014°26'1 0.8
2017-May-21 05:38N 55°34' E 014°25'0 0.8
2017-May-21 05:27N 55°34' E 014°25'2 4.2
2017-May-21 04:55N 55°33' E 014°22'0 0.0
2017-May-20 11:37N 55°33' E 014°22'0 0.0
2017-May-20 08:13N 55°33' E 014°22'0 0.0
2017-May-20 05:25N 55°33' E 014°22'0 0.0
2017-May-20 04:55N 55°33' E 014°22'0 0.0
2017-May-20 03:31N 55°33' E 014°22'0 0.0
2017-May-20 03:25N 55°33' E 014°22'0 0.0
2017-May-20 02:19N 55°33' E 014°22'0 0.0
2017-May-20 01:49N 55°33' E 014°22'0 0.0
2017-May-20 01:19N 55°33' E 014°22'0 0.0
2017-May-20 00:43N 55°33' E 014°22'0 0.0
2017-May-19 22:37N 55°33' E 014°22'0 0.0
2017-May-19 21:19N 55°33' E 014°22'0 0.0
2017-May-19 19:25N 55°33' E 014°22'0 0.0
2017-May-19 18:31N 55°33' E 014°22'0 0.0
2017-May-19 18:19N 55°33' E 014°22'0 0.0
2017-May-19 17:49N 55°33' E 014°22'0 0.0
2017-May-18 17:51N 55°33' E 014°21'3 6.7
2017-May-18 17:28N 55°34' E 014°26'4 5.5
2017-May-18 16:48N 55°35' E 014°32'1 4.6
2017-May-18 16:29N 55°35' E 014°35'2 2.6
2017-May-18 15:44N 55°34' E 014°38'1 2.8
2017-May-18 15:24N 55°34' E 014°39'1 2.8
2017-May-18 14:55N 55°33' E 014°40'2 2.3
2017-May-18 13:57N 55°30' E 014°40'2 2.9
2017-May-18 13:26N 55°30' E 014°38'1 2.9
2017-May-18 12:56N 55°29' E 014°36'1 2.8
2017-May-18 12:30N 55°28' E 014°34'2 2.9
2017-May-18 11:56N 55°27' E 014°32'1 1.7
2017-May-18 11:27N 55°27' E 014°31'2 3.0
2017-May-18 10:57N 55°27' E 014°33'2 1.5
2017-May-18 09:46N 55°28' E 014°36'0 1.1
2017-May-18 09:22N 55°29' E 014°36'0 0.6
2017-May-18 08:56N 55°29' E 014°35'1 2.9
2017-May-18 08:29N 55°30' E 014°37'1 2.9
2017-May-18 07:58N 55°30' E 014°40'1 2.9
2017-May-18 07:29N 55°31' E 014°42'1 1.6
2017-May-18 06:59N 55°31' E 014°43'2 2.5
2017-May-18 06:22N 55°31' E 014°41'1 2.9
2017-May-18 06:00N 55°30' E 014°39'1 2.9
2017-May-18 05:29N 55°29' E 014°37'2 2.9
2017-May-18 04:53N 55°28' E 014°35'2 2.9
2017-May-18 04:21N 55°27' E 014°33'2 2.9
2017-May-18 03:45N 55°25' E 014°31'1 1.1
2017-May-18 03:07N 55°26' E 014°30'1 4.4
2017-May-18 03:00N 55°26' E 014°30'4 7.3
2017-May-18 02:27N 55°30' E 014°27'3 7.3
2017-May-18 02:00N 55°32' E 014°23'1 0.5
2017-May-17 23:22N 55°33' E 014°22'0 0.0
2017-May-17 22:58N 55°33' E 014°22'0 0.1
2017-May-17 17:22N 55°34' E 014°22'4 7.6
2017-May-17 16:53N 55°33' E 014°28'4 7.9
2017-May-17 16:26N 55°31' E 014°34'3 3.1
2017-May-17 15:22N 55°28' E 014°38'1 3.0
2017-May-17 15:00N 55°28' E 014°36'2 3.0
2017-May-17 14:27N 55°27' E 014°33'2 1.9
2017-May-17 13:25N 55°29' E 014°35'1 1.1
2017-May-17 12:58N 55°29' E 014°36'1 2.2
2017-May-17 12:21N 55°30' E 014°38'1 2.7
2017-May-17 11:59N 55°30' E 014°39'2 2.9
2017-May-17 11:27N 55°31' E 014°42'0 0.1
2017-May-17 10:08N 55°31' E 014°42'0 0.9
2017-May-17 10:00N 55°31' E 014°42'2 2.9
2017-May-17 09:28N 55°30' E 014°39'2 3.0
2017-May-17 08:58N 55°29' E 014°37'2 3.0
2017-May-17 08:28N 55°28' E 014°36'1 3.0
2017-May-17 08:00N 55°27' E 014°34'2 3.0
2017-May-17 07:28N 55°26' E 014°31'1 3.0
2017-May-17 06:59N 55°25' E 014°30'1 2.9
2017-May-17 06:30N 55°24' E 014°28'1 2.9
2017-May-17 05:59N 55°23' E 014°26'1 2.7
2017-May-17 05:30N 55°22' E 014°25'0 0.5
2017-May-17 04:57N 55°22' E 014°25'1 2.5
2017-May-17 04:29N 55°23' E 014°25'2 3.2
2017-May-17 03:59N 55°25' E 014°25'2 3.1
2017-May-17 03:29N 55°26' E 014°26'2 3.1
2017-May-17 02:58N 55°28' E 014°26'2 4.5
2017-May-17 02:28N 55°30' E 014°25'3 6.2
2017-May-17 01:58N 55°33' E 014°23'1 0.9
2017-May-17 00:49N 55°33' E 014°22'0 0.0
2017-May-16 17:36N 55°33' E 014°22'9 3.8
2017-May-16 15:19N 55°26' E 014°28'1 2.8
2017-May-16 15:00N 55°25' E 014°28'1 2.8
2017-May-16 14:30N 55°23' E 014°27'1 1.1
2017-May-16 13:22N 55°22' E 014°27'1 3.1
2017-May-16 13:00N 55°23' E 014°28'2 3.1
2017-May-16 12:27N 55°25' E 014°29'1 3.0
2017-May-16 11:59N 55°26' E 014°30'2 2.7
2017-May-16 11:25N 55°28' E 014°29'2 2.3
2017-May-16 10:34N 55°26' E 014°27'0 2.8
2017-May-16 10:30N 55°26' E 014°27'2 2.8
2017-May-16 09:55N 55°24' E 014°27'1 2.7
2017-May-16 09:24N 55°23' E 014°27'1 2.3
2017-May-16 08:58N 55°22' E 014°26'0 0.5
2017-May-16 08:28N 55°22' E 014°26'2 3.1
2017-May-16 07:55N 55°24' E 014°26'1 3.1
2017-May-16 07:29N 55°25' E 014°26'2 3.0
2017-May-16 06:55N 55°27' E 014°26'1 2.9
2017-May-16 06:27N 55°28' E 014°28'3 2.5
2017-May-16 05:18N 55°25' E 014°31'1 2.8
2017-May-16 04:57N 55°25' E 014°30'2 2.9
2017-May-16 04:14N 55°26' E 014°27'1 3.0
2017-May-16 03:57N 55°27' E 014°26'3 4.5
2017-May-16 03:22N 55°29' E 014°26'3 7.7
2017-May-16 02:59N 55°32' E 014°24'2 0.2
2017-May-15 17:59N 55°33' E 014°22'4 7.3
2017-May-15 17:24N 55°33' E 014°29'4 8.0
2017-May-15 16:56N 55°33' E 014°36'3 7.9
2017-May-15 16:30N 55°32' E 014°42'1 2.4
2017-May-15 15:56N 55°32' E 014°44'1 3.0
2017-May-15 15:28N 55°31' E 014°46'2 3.0
2017-May-15 14:57N 55°30' E 014°48'1 3.0
2017-May-15 14:29N 55°30' E 014°51'2 1.0
2017-May-15 12:45N 55°29' E 014°53'2 3.0
2017-May-15 12:04N 55°29' E 014°50'0 3.1
2017-May-15 12:00N 55°29' E 014°49'3 3.0
2017-May-15 11:01N 55°28' E 014°45'0 3.0
2017-May-15 10:51N 55°27' E 014°44'1 3.0
2017-May-15 10:27N 55°27' E 014°42'2 2.9
2017-May-15 09:56N 55°27' E 014°39'2 3.0
2017-May-15 09:26N 55°27' E 014°37'1 1.7
2017-May-15 09:00N 55°26' E 014°36'1 2.3
2017-May-15 08:29N 55°26' E 014°38'2 3.1
2017-May-15 07:52N 55°26' E 014°41'1 3.1
2017-May-15 07:26N 55°26' E 014°44'2 3.1
2017-May-15 06:53N 55°26' E 014°47'1 3.1
2017-May-15 06:26N 55°26' E 014°49'1 2.3
2017-May-15 05:57N 55°27' E 014°50'2 2.9
2017-May-15 05:25N 55°28' E 014°48'1 2.9
2017-May-15 04:54N 55°28' E 014°45'1 2.9
2017-May-15 04:30N 55°28' E 014°43'2 2.9
2017-May-15 03:59N 55°28' E 014°41'2 3.1
2017-May-15 03:18N 55°27' E 014°37'2 7.7
2017-May-15 02:59N 55°28' E 014°34'4 7.8
2017-May-15 02:25N 55°31' E 014°28'4 7.9
2017-May-15 01:58N 55°33' E 014°23'1 0.2
2017-May-14 22:56N 55°33' E 014°22'0 0.0
2017-May-14 21:14N 55°33' E 014°22'0 0.0
2017-May-14 20:56N 55°33' E 014°22'0 0.0
2017-May-14 17:56N 55°33' E 014°22'0 0.0
2017-May-14 12:26N 55°33' E 014°22'0 0.0
2017-May-13 22:38N 55°33' E 014°22'0 0.0
2017-May-13 22:20N 55°33' E 014°22'0 0.0
2017-May-13 21:59N 55°33' E 014°22'0 0.0
2017-May-13 16:50N 55°33' E 014°22'0 0.0
2017-May-13 14:14N 55°33' E 014°22'0 0.0
2017-May-13 13:08N 55°33' E 014°22'0 0.0
2017-May-13 10:32N 55°33' E 014°22'0 0.0
2017-May-13 10:08N 55°33' E 014°22'0 0.0
2017-May-13 09:50N 55°33' E 014°22'  
Track history (hours):
 
Tides and Currents Weather Stations Pressure Air Temp Water Temp Dewpoint Dewpoint Depression Visibility Wind Speed Wind Dir Waves Ship Positions

Linzy

Last reported at 2017-May-22 18:12 UTC. Time now 2017-May-22 19:17 UTC.
Position N 55°33' E 014°22'.

Length 15 m.

Type: Fishing. MMSI: 265507290.

Date/timePositionNaut miles runAvg speedWind from/ knotsBaromVisibWave heightAir tempDewpointWater temp
2017-May-22 18:12N 55°33' E 014°22'0 0.0
2017-May-22 17:52N 55°33' E 014°22'3 6.6
2017-May-22 17:29N 55°33' E 014°26'5 8.2
2017-May-22 16:56N 55°30' E 014°32'1 2.2
2017-May-22 16:26N 55°29' E 014°33'0 0.7
2017-May-22 15:48N 55°29' E 014°33'1 1.5
2017-May-22 15:12N 55°28' E 014°32'1 1.8
2017-May-22 14:49N 55°27' E 014°34'2 2.3
2017-May-22 13:57N 55°29' E 014°36'2 2.7
2017-May-22 13:20N 55°30' E 014°38'1 2.9
2017-May-22 13:00N 55°30' E 014°40'2 3.0
2017-May-22 12:28N 55°31' E 014°43'2 3.0
2017-May-22 11:56N 55°31' E 014°45'1 1.1
2017-May-22 10:58N 55°30' E 014°47'1 1.1
2017-May-22 10:30N 55°30' E 014°46'1 2.6
2017-May-22 09:57N 55°31' E 014°44'3 2.8
2017-May-22 08:44N 55°33' E 014°40'1 2.8
2017-May-22 08:23N 55°34' E 014°40'2 1.5
2017-May-22 07:07N 55°33' E 014°38'1 2.8
2017-May-22 06:40N 55°32' E 014°40'2 1.8
2017-May-22 05:26N 55°30' E 014°38'2 2.9
2017-May-22 04:42N 55°29' E 014°35'2 2.9
2017-May-22 04:11N 55°28' E 014°33'1 3.0
2017-May-22 03:57N 55°27' E 014°33'1 3.1
2017-May-22 03:29N 55°26' E 014°31'1 2.1
2017-May-22 03:00N 55°25' E 014°30'5 7.6
2017-May-22 02:24N 55°29' E 014°26'5 2.7
2017-May-22 00:42N 55°33' E 014°22'0 0.0
2017-May-21 23:12N 55°33' E 014°22'0 0.0
2017-May-21 23:00N 55°33' E 014°21'0 0.0
2017-May-21 22:30N 55°33' E 014°22'0 0.0
2017-May-21 21:00N 55°33' E 014°22'0 0.0
2017-May-21 16:30N 55°33' E 014°22'0 0.0
2017-May-21 14:42N 55°33' E 014°22'0 0.0
2017-May-21 14:00N 55°33' E 014°22'0 0.0
2017-May-21 13:30N 55°33' E 014°22'0 0.0
2017-May-21 09:48N 55°33' E 014°22'0 0.1
2017-May-21 07:39N 55°34' E 014°21'1 7.8
2017-May-21 07:29N 55°34' E 014°24'2 2.6
2017-May-21 06:47N 55°34' E 014°27'0 1.5
2017-May-21 06:30N 55°34' E 014°26'1 0.8
2017-May-21 05:38N 55°34' E 014°25'0 0.8
2017-May-21 05:27N 55°34' E 014°25'2 4.2
2017-May-21 04:55N 55°33' E 014°22'0 0.0
2017-May-20 11:37N 55°33' E 014°22'0 0.0
2017-May-20 08:13N 55°33' E 014°22'0 0.0
2017-May-20 05:25N 55°33' E 014°22'0 0.0
2017-May-20 04:55N 55°33' E 014°22'0 0.0
2017-May-20 03:31N 55°33' E 014°22'0 0.0
2017-May-20 03:25N 55°33' E 014°22'0 0.0
2017-May-20 02:19N 55°33' E 014°22'0 0.0
2017-May-20 01:49N 55°33' E 014°22'0 0.0
2017-May-20 01:19N 55°33' E 014°22'0 0.0
2017-May-20 00:43N 55°33' E 014°22'0 0.0
2017-May-19 22:37N 55°33' E 014°22'0 0.0
2017-May-19 21:19N 55°33' E 014°22'0 0.0
2017-May-19 19:25N 55°33' E 014°22'0 0.0
2017-May-19 18:31N 55°33' E 014°22'0 0.0
2017-May-19 18:19N 55°33' E 014°22'0 0.0
2017-May-19 17:49N 55°33' E 014°22'0 0.0
2017-May-18 17:51N 55°33' E 014°21'3 6.7
2017-May-18 17:28N 55°34' E 014°26'4 5.5
2017-May-18 16:48N 55°35' E 014°32'1 4.6
2017-May-18 16:29N 55°35' E 014°35'2 2.6
2017-May-18 15:44N 55°34' E 014°38'1 2.8
2017-May-18 15:24N 55°34' E 014°39'1 2.8
2017-May-18 14:55N 55°33' E 014°40'2 2.3
2017-May-18 13:57N 55°30' E 014°40'2 2.9
2017-May-18 13:26N 55°30' E 014°38'1 2.9
2017-May-18 12:56N 55°29' E 014°36'1 2.8
2017-May-18 12:30N 55°28' E 014°34'2 2.9
2017-May-18 11:56N 55°27' E 014°32'1 1.7
2017-May-18 11:27N 55°27' E 014°31'2 3.0
2017-May-18 10:57N 55°27' E 014°33'2 1.5
2017-May-18 09:46N 55°28' E 014°36'0 1.1
2017-May-18 09:22N 55°29' E 014°36'0 0.6
2017-May-18 08:56N 55°29' E 014°35'1 2.9
2017-May-18 08:29N 55°30' E 014°37'1 2.9
2017-May-18 07:58N 55°30' E 014°40'1 2.9
2017-May-18 07:29N 55°31' E 014°42'1 1.6
2017-May-18 06:59N 55°31' E 014°43'2 2.5
2017-May-18 06:22N 55°31' E 014°41'1 2.9
2017-May-18 06:00N 55°30' E 014°39'1 2.9
2017-May-18 05:29N 55°29' E 014°37'2 2.9
2017-May-18 04:53N 55°28' E 014°35'2 2.9
2017-May-18 04:21N 55°27' E 014°33'2 2.9
2017-May-18 03:45N 55°25' E 014°31'1 1.1
2017-May-18 03:07N 55°26' E 014°30'1 4.4
2017-May-18 03:00N 55°26' E 014°30'4 7.3
2017-May-18 02:27N 55°30' E 014°27'3 7.3
2017-May-18 02:00N 55°32' E 014°23'1 0.5
2017-May-17 23:22N 55°33' E 014°22'0 0.0
2017-May-17 22:58N 55°33' E 014°22'0 0.1
2017-May-17 17:22N 55°34' E 014°22'4 7.6
2017-May-17 16:53N 55°33' E 014°28'4 7.9
2017-May-17 16:26N 55°31' E 014°34'3 3.1
2017-May-17 15:22N 55°28' E 014°38'1 3.0
2017-May-17 15:00N 55°28' E 014°36'2 3.0
2017-May-17 14:27N 55°27' E 014°33'2 1.9
2017-May-17 13:25N 55°29' E 014°35'1 1.1
2017-May-17 12:58N 55°29' E 014°36'1 2.2
2017-May-17 12:21N 55°30' E 014°38'1 2.7
2017-May-17 11:59N 55°30' E 014°39'2 2.9
2017-May-17 11:27N 55°31' E 014°42'0 0.1
2017-May-17 10:08N 55°31' E 014°42'0 0.9
2017-May-17 10:00N 55°31' E 014°42'2 2.9
2017-May-17 09:28N 55°30' E 014°39'2 3.0
2017-May-17 08:58N 55°29' E 014°37'2 3.0
2017-May-17 08:28N 55°28' E 014°36'1 3.0
2017-May-17 08:00N 55°27' E 014°34'2 3.0
2017-May-17 07:28N 55°26' E 014°31'1 3.0
2017-May-17 06:59N 55°25' E 014°30'1 2.9
2017-May-17 06:30N 55°24' E 014°28'1 2.9
2017-May-17 05:59N 55°23' E 014°26'1 2.7
2017-May-17 05:30N 55°22' E 014°25'0 0.5
2017-May-17 04:57N 55°22' E 014°25'1 2.5
2017-May-17 04:29N 55°23' E 014°25'2 3.2
2017-May-17 03:59N 55°25' E 014°25'2 3.1
2017-May-17 03:29N 55°26' E 014°26'2 3.1
2017-May-17 02:58N 55°28' E 014°26'2 4.5
2017-May-17 02:28N 55°30' E 014°25'3 6.2
2017-May-17 01:58N 55°33' E 014°23'1 0.9
2017-May-17 00:49N 55°33' E 014°22'0 0.0
2017-May-16 17:36N 55°33' E 014°22'9 3.8
2017-May-16 15:19N 55°26' E 014°28'1 2.8
2017-May-16 15:00N 55°25' E 014°28'1 2.8
2017-May-16 14:30N 55°23' E 014°27'1 1.1
2017-May-16 13:22N 55°22' E 014°27'1 3.1
2017-May-16 13:00N 55°23' E 014°28'2 3.1
2017-May-16 12:27N 55°25' E 014°29'1 3.0
2017-May-16 11:59N 55°26' E 014°30'2 2.7
2017-May-16 11:25N 55°28' E 014°29'2 2.3
2017-May-16 10:34N 55°26' E 014°27'0 2.8
2017-May-16 10:30N 55°26' E 014°27'2 2.8
2017-May-16 09:55N 55°24' E 014°27'1 2.7
2017-May-16 09:24N 55°23' E 014°27'1 2.3
2017-May-16 08:58N 55°22' E 014°26'0 0.5
2017-May-16 08:28N 55°22' E 014°26'2 3.1
2017-May-16 07:55N 55°24' E 014°26'1 3.1
2017-May-16 07:29N 55°25' E 014°26'2 3.0
2017-May-16 06:55N 55°27' E 014°26'1 2.9
2017-May-16 06:27N 55°28' E 014°28'3 2.5
2017-May-16 05:18N 55°25' E 014°31'1 2.8
2017-May-16 04:57N 55°25' E 014°30'2 2.9
2017-May-16 04:14N 55°26' E 014°27'1 3.0
2017-May-16 03:57N 55°27' E 014°26'3 4.5
2017-May-16 03:22N 55°29' E 014°26'3 7.7
2017-May-16 02:59N 55°32' E 014°24'2 0.2
2017-May-15 17:59N 55°33' E 014°22'4 7.3
2017-May-15 17:24N 55°33' E 014°29'4 8.0
2017-May-15 16:56N 55°33' E 014°36'3 7.9
2017-May-15 16:30N 55°32' E 014°42'1 2.4
2017-May-15 15:56N 55°32' E 014°44'1 3.0
2017-May-15 15:28N 55°31' E 014°46'2 3.0
2017-May-15 14:57N 55°30' E 014°48'1 3.0
2017-May-15 14:29N 55°30' E 014°51'2 1.0
2017-May-15 12:45N 55°29' E 014°53'2 3.0
2017-May-15 12:04N 55°29' E 014°50'0 3.1
2017-May-15 12:00N 55°29' E 014°49'3 3.0
2017-May-15 11:01N 55°28' E 014°45'0 3.0
2017-May-15 10:51N 55°27' E 014°44'1 3.0
2017-May-15 10:27N 55°27' E 014°42'2 2.9
2017-May-15 09:56N 55°27' E 014°39'2 3.0
2017-May-15 09:26N 55°27' E 014°37'1 1.7
2017-May-15 09:00N 55°26' E 014°36'1 2.3
2017-May-15 08:29N 55°26' E 014°38'2 3.1
2017-May-15 07:52N 55°26' E 014°41'1 3.1
2017-May-15 07:26N 55°26' E 014°44'2 3.1
2017-May-15 06:53N 55°26' E 014°47'1 3.1
2017-May-15 06:26N 55°26' E 014°49'1 2.3
2017-May-15 05:57N 55°27' E 014°50'2 2.9
2017-May-15 05:25N 55°28' E 014°48'1 2.9
2017-May-15 04:54N 55°28' E 014°45'1 2.9
2017-May-15 04:30N 55°28' E 014°43'2 2.9
2017-May-15 03:59N 55°28' E 014°41'2 3.1
2017-May-15 03:18N 55°27' E 014°37'2 7.7
2017-May-15 02:59N 55°28' E 014°34'4 7.8
2017-May-15 02:25N 55°31' E 014°28'4 7.9
2017-May-15 01:58N 55°33' E 014°23'1 0.2
2017-May-14 22:56N 55°33' E 014°22'0 0.0
2017-May-14 21:14N 55°33' E 014°22'0 0.0
2017-May-14 20:56N 55°33' E 014°22'0 0.0
2017-May-14 17:56N 55°33' E 014°22'0 0.0
2017-May-14 12:26N 55°33' E 014°22'0 0.0
2017-May-13 22:38N 55°33' E 014°22'0 0.0
2017-May-13 22:20N 55°33' E 014°22'0 0.0
2017-May-13 21:59N 55°33' E 014°22'0 0.0
2017-May-13 16:50N 55°33' E 014°22'0 0.0
2017-May-13 14:14N 55°33' E 014°22'0 0.0
2017-May-13 13:08N 55°33' E 014°22'0 0.0
2017-May-13 10:32N 55°33' E 014°22'0 0.0
2017-May-13 10:08N 55°33' E 014°22'0 0.0
2017-May-13 09:50N 55°33' E 014°22'  

Dump ship's entire track history